Welton, Iowa
Current Conditions -  °F | °C
As of 11:15 AM on Sunday 23 Nov 2014 (Local Time) from KCWI Reporting Station
Overcast Overcast  
Wind Chill: 45°   Ceiling: 800
Heat Index: 48°   Visibility: 4mi
Dew Point: 46°   Wind: 8mph
Humidity: 93%   Direction: 150°SSE
Pressure: 29.57"   Gusts: NA
Location:  41.91°N, 90.6°W
Report Text: KCWI 231715Z AUTO 15007KT 4SM BKN008 OVC013 09/08 A2957 RMK AO1 P0002
Loading
Personal Weather Stations






























Interactive Weather Map New forecast layout! Learn more

10-Day Weather Forecast

Advertisements
Track Severe Weather on mobile